sensor_id;sensor_type;location;lat;lon;timestamp;temperature;humidity
25871;DHT22;13689;48.590;7.752;2022-07-03T00:01:47;23.00;55.90
25871;DHT22;13689;48.590;7.752;2022-07-03T00:04:13;23.00;56.10
25871;DHT22;13689;48.590;7.752;2022-07-03T00:06:38;23.00;56.40
25871;DHT22;13689;48.590;7.752;2022-07-03T00:09:06;23.00;56.60
25871;DHT22;13689;48.590;7.752;2022-07-03T00:11:32;23.00;56.90
25871;DHT22;13689;48.590;7.752;2022-07-03T00:13:58;22.90;57.00
25871;DHT22;13689;48.590;7.752;2022-07-03T00:16:24;22.90;57.30
25871;DHT22;13689;48.590;7.752;2022-07-03T00:18:50;22.90;57.50
25871;DHT22;13689;48.590;7.752;2022-07-03T00:21:28;22.90;57.70
25871;DHT22;13689;48.590;7.752;2022-07-03T00:24:01;22.90;57.90
25871;DHT22;13689;48.590;7.752;2022-07-03T00:26:29;22.80;58.00
25871;DHT22;13689;48.590;7.752;2022-07-03T00:28:57;22.70;58.20
25871;DHT22;13689;48.590;7.752;2022-07-03T00:31:24;22.70;58.40
25871;DHT22;13689;48.590;7.752;2022-07-03T00:33:51;22.70;58.50
25871;DHT22;13689;48.590;7.752;2022-07-03T00:36:18;22.70;58.60
25871;DHT22;13689;48.590;7.752;2022-07-03T00:38:44;22.70;58.70
25871;DHT22;13689;48.590;7.752;2022-07-03T00:41:30;22.60;58.90
25871;DHT22;13689;48.590;7.752;2022-07-03T00:43:56;22.60;59.20
25871;DHT22;13689;48.590;7.752;2022-07-03T00:46:24;22.50;59.20
25871;DHT22;13689;48.590;7.752;2022-07-03T00:48:51;22.50;59.30
25871;DHT22;13689;48.590;7.752;2022-07-03T00:51:24;22.50;59.50
25871;DHT22;13689;48.590;7.752;2022-07-03T00:53:52;22.40;59.60
25871;DHT22;13689;48.590;7.752;2022-07-03T00:56:29;22.50;59.80
25871;DHT22;13689;48.590;7.752;2022-07-03T00:59:00;22.40;59.90
25871;DHT22;13689;48.590;7.752;2022-07-03T01:01:36;22.40;60.20
25871;DHT22;13689;48.590;7.752;2022-07-03T01:07:06;22.30;60.80
25871;DHT22;13689;48.590;7.752;2022-07-03T01:20:53;22.10;62.70
25871;DHT22;13689;48.590;7.752;2022-07-03T01:26:12;22.10;63.30
25871;DHT22;13689;48.590;7.752;2022-07-03T01:28:43;22.00;63.30
25871;DHT22;13689;48.590;7.752;2022-07-03T01:31:10;22.00;64.60
25871;DHT22;13689;48.590;7.752;2022-07-03T01:33:39;22.00;64.00
25871;DHT22;13689;48.590;7.752;2022-07-03T01:36:07;21.90;64.40
25871;DHT22;13689;48.590;7.752;2022-07-03T01:38:35;21.90;64.80
25871;DHT22;13689;48.590;7.752;2022-07-03T01:41:02;21.90;65.10
25871;DHT22;13689;48.590;7.752;2022-07-03T01:43:30;21.80;65.30
25871;DHT22;13689;48.590;7.752;2022-07-03T01:45:57;21.80;65.50
25871;DHT22;13689;48.590;7.752;2022-07-03T01:48:28;21.80;66.00
25871;DHT22;13689;48.590;7.752;2022-07-03T01:50:55;21.70;66.00
25871;DHT22;13689;48.590;7.752;2022-07-03T01:53:28;21.70;66.10
25871;DHT22;13689;48.590;7.752;2022-07-03T01:55:59;21.70;66.30
25871;DHT22;13689;48.590;7.752;2022-07-03T01:58:26;21.70;66.30
25871;DHT22;13689;48.590;7.752;2022-07-03T02:03:50;21.60;66.80
25871;DHT22;13689;48.590;7.752;2022-07-03T02:09:02;21.50;67.20
25871;DHT22;13689;48.590;7.752;2022-07-03T02:11:36;21.50;67.30
25871;DHT22;13689;48.590;7.752;2022-07-03T02:14:16;21.50;67.50
25871;DHT22;13689;48.590;7.752;2022-07-03T02:19:14;21.40;67.80
25871;DHT22;13689;48.590;7.752;2022-07-03T02:21:47;21.40;67.70
25871;DHT22;13689;48.590;7.752;2022-07-03T02:24:22;21.40;67.70
25871;DHT22;13689;48.590;7.752;2022-07-03T02:27:05;21.40;67.80
25871;DHT22;13689;48.590;7.752;2022-07-03T02:29:36;21.30;67.70
25871;DHT22;13689;48.590;7.752;2022-07-03T02:32:11;21.30;67.80
25871;DHT22;13689;48.590;7.752;2022-07-03T02:34:38;21.30;67.90
25871;DHT22;13689;48.590;7.752;2022-07-03T02:37:10;21.30;67.90
25871;DHT22;13689;48.590;7.752;2022-07-03T02:39:45;21.20;68.00
25871;DHT22;13689;48.590;7.752;2022-07-03T02:42:35;21.20;68.00
25871;DHT22;13689;48.590;7.752;2022-07-03T02:45:04;21.20;68.20
25871;DHT22;13689;48.590;7.752;2022-07-03T02:50:22;21.10;68.10
25871;DHT22;13689;48.590;7.752;2022-07-03T02:53:11;21.10;68.10
25871;DHT22;13689;48.590;7.752;2022-07-03T03:01:16;21.10;68.20
25871;DHT22;13689;48.590;7.752;2022-07-03T03:03:52;21.00;68.10
25871;DHT22;13689;48.590;7.752;2022-07-03T03:06:21;21.00;68.30
25871;DHT22;13689;48.590;7.752;2022-07-03T03:08:48;21.00;68.30
25871;DHT22;13689;48.590;7.752;2022-07-03T03:13:50;20.90;68.40
25871;DHT22;13689;48.590;7.752;2022-07-03T03:16:20;20.90;68.50
25871;DHT22;13689;48.590;7.752;2022-07-03T03:18:47;20.90;68.60
25871;DHT22;13689;48.590;7.752;2022-07-03T03:21:16;20.90;68.70
25871;DHT22;13689;48.590;7.752;2022-07-03T03:23:50;20.90;68.80
25871;DHT22;13689;48.590;7.752;2022-07-03T03:26:21;20.80;68.90
25871;DHT22;13689;48.590;7.752;2022-07-03T03:28:48;20.80;68.90
25871;DHT22;13689;48.590;7.752;2022-07-03T03:31:14;20.80;68.90
25871;DHT22;13689;48.590;7.752;2022-07-03T03:33:45;20.80;69.00
25871;DHT22;13689;48.590;7.752;2022-07-03T03:36:12;20.80;69.00
25871;DHT22;13689;48.590;7.752;2022-07-03T03:38:39;20.80;69.00
25871;DHT22;13689;48.590;7.752;2022-07-03T03:41:06;20.80;69.00
25871;DHT22;13689;48.590;7.752;2022-07-03T03:43:33;20.80;69.10
25871;DHT22;13689;48.590;7.752;2022-07-03T03:45:59;20.70;69.10
25871;DHT22;13689;48.590;7.752;2022-07-03T03:48:26;20.70;69.30
25871;DHT22;13689;48.590;7.752;2022-07-03T03:50:53;20.70;69.40
25871;DHT22;13689;48.590;7.752;2022-07-03T03:53:19;20.70;69.30
25871;DHT22;13689;48.590;7.752;2022-07-03T03:56:06;20.70;69.50
25871;DHT22;13689;48.590;7.752;2022-07-03T03:58:34;20.70;69.60
25871;DHT22;13689;48.590;7.752;2022-07-03T04:01:01;20.60;69.50
25871;DHT22;13689;48.590;7.752;2022-07-03T04:03:28;20.60;69.60
25871;DHT22;13689;48.590;7.752;2022-07-03T04:05:55;20.60;69.50
25871;DHT22;13689;48.590;7.752;2022-07-03T04:08:23;20.60;69.50
25871;DHT22;13689;48.590;7.752;2022-07-03T04:10:49;20.60;69.60
25871;DHT22;13689;48.590;7.752;2022-07-03T04:13:16;20.60;69.50
25871;DHT22;13689;48.590;7.752;2022-07-03T04:15:44;20.60;70.10
25871;DHT22;13689;48.590;7.752;2022-07-03T04:18:10;20.60;69.10
25871;DHT22;13689;48.590;7.752;2022-07-03T04:20:36;20.60;69.00
25871;DHT22;13689;48.590;7.752;2022-07-03T04:23:01;20.60;69.10
25871;DHT22;13689;48.590;7.752;2022-07-03T04:25:27;20.60;69.00
25871;DHT22;13689;48.590;7.752;2022-07-03T04:27:54;20.50;68.90
25871;DHT22;13689;48.590;7.752;2022-07-03T04:30:20;20.50;69.00
25871;DHT22;13689;48.590;7.752;2022-07-03T04:32:46;20.50;69.00
25871;DHT22;13689;48.590;7.752;2022-07-03T04:35:13;20.50;69.00
25871;DHT22;13689;48.590;7.752;2022-07-03T04:37:39;20.40;69.00
25871;DHT22;13689;48.590;7.752;2022-07-03T04:40:05;20.50;69.00
25871;DHT22;13689;48.590;7.752;2022-07-03T04:42:31;20.40;68.90
25871;DHT22;13689;48.590;7.752;2022-07-03T04:44:57;20.40;69.00
25871;DHT22;13689;48.590;7.752;2022-07-03T04:47:23;20.50;68.90
25871;DHT22;13689;48.590;7.752;2022-07-03T04:49:49;20.50;68.70
25871;DHT22;13689;48.590;7.752;2022-07-03T04:52:14;20.50;68.70
25871;DHT22;13689;48.590;7.752;2022-07-03T04:54:43;20.60;68.50
25871;DHT22;13689;48.590;7.752;2022-07-03T04:57:11;20.60;68.30
25871;DHT22;13689;48.590;7.752;2022-07-03T04:59:37;20.60;68.20
25871;DHT22;13689;48.590;7.752;2022-07-03T05:02:03;20.60;68.00
25871;DHT22;13689;48.590;7.752;2022-07-03T05:04:29;20.70;67.90
25871;DHT22;13689;48.590;7.752;2022-07-03T05:06:55;20.70;67.70
25871;DHT22;13689;48.590;7.752;2022-07-03T05:09:20;20.80;67.60
25871;DHT22;13689;48.590;7.752;2022-07-03T05:11:46;20.80;67.30
25871;DHT22;13689;48.590;7.752;2022-07-03T05:14:12;20.90;67.20
25871;DHT22;13689;48.590;7.752;2022-07-03T05:16:38;21.00;67.00
25871;DHT22;13689;48.590;7.752;2022-07-03T05:19:03;21.10;66.60
25871;DHT22;13689;48.590;7.752;2022-07-03T05:21:29;21.20;66.20
25871;DHT22;13689;48.590;7.752;2022-07-03T05:23:55;21.30;65.90
25871;DHT22;13689;48.590;7.752;2022-07-03T05:26:20;21.40;65.50
25871;DHT22;13689;48.590;7.752;2022-07-03T05:28:46;21.70;64.80
25871;DHT22;13689;48.590;7.752;2022-07-03T05:31:12;22.00;64.10
25871;DHT22;13689;48.590;7.752;2022-07-03T05:33:37;22.30;63.10
25871;DHT22;13689;48.590;7.752;2022-07-03T05:36:04;22.50;62.40
25871;DHT22;13689;48.590;7.752;2022-07-03T05:38:31;22.70;61.80
25871;DHT22;13689;48.590;7.752;2022-07-03T05:41:23;22.90;61.10
25871;DHT22;13689;48.590;7.752;2022-07-03T05:43:48;23.10;60.10
25871;DHT22;13689;48.590;7.752;2022-07-03T05:46:14;23.20;59.70
25871;DHT22;13689;48.590;7.752;2022-07-03T05:48:40;23.30;59.30
25871;DHT22;13689;48.590;7.752;2022-07-03T05:51:06;23.50;59.50
25871;DHT22;13689;48.590;7.752;2022-07-03T05:53:31;23.60;58.50
25871;DHT22;13689;48.590;7.752;2022-07-03T05:55:58;23.70;58.30
25871;DHT22;13689;48.590;7.752;2022-07-03T05:58:24;23.80;58.10
25871;DHT22;13689;48.590;7.752;2022-07-03T06:00:49;24.00;57.90
25871;DHT22;13689;48.590;7.752;2022-07-03T06:03:15;24.20;57.60
25871;DHT22;13689;48.590;7.752;2022-07-03T06:05:41;24.30;57.40
25871;DHT22;13689;48.590;7.752;2022-07-03T06:08:06;24.30;57.10
25871;DHT22;13689;48.590;7.752;2022-07-03T06:10:33;24.50;56.80
25871;DHT22;13689;48.590;7.752;2022-07-03T06:12:59;24.60;56.60
25871;DHT22;13689;48.590;7.752;2022-07-03T06:15:25;24.70;56.40
25871;DHT22;13689;48.590;7.752;2022-07-03T06:17:50;24.80;56.10
25871;DHT22;13689;48.590;7.752;2022-07-03T06:20:16;24.90;55.80
25871;DHT22;13689;48.590;7.752;2022-07-03T06:22:42;25.00;55.60
25871;DHT22;13689;48.590;7.752;2022-07-03T06:25:08;25.10;55.30
25871;DHT22;13689;48.590;7.752;2022-07-03T06:27:35;25.20;54.70
25871;DHT22;13689;48.590;7.752;2022-07-03T06:30:01;25.40;54.50
25871;DHT22;13689;48.590;7.752;2022-07-03T06:32:27;25.40;54.10
25871;DHT22;13689;48.590;7.752;2022-07-03T06:34:54;25.40;54.10
25871;DHT22;13689;48.590;7.752;2022-07-03T06:37:20;25.40;54.00
25871;DHT22;13689;48.590;7.752;2022-07-03T06:39:46;25.60;53.70
25871;DHT22;13689;48.590;7.752;2022-07-03T06:42:12;25.70;53.50
25871;DHT22;13689;48.590;7.752;2022-07-03T06:44:38;25.80;53.20
25871;DHT22;13689;48.590;7.752;2022-07-03T06:47:04;26.00;52.70
25871;DHT22;13689;48.590;7.752;2022-07-03T06:49:32;26.10;52.30
25871;DHT22;13689;48.590;7.752;2022-07-03T06:51:58;26.30;51.90
25871;DHT22;13689;48.590;7.752;2022-07-03T06:54:24;26.40;51.80
25871;DHT22;13689;48.590;7.752;2022-07-03T06:56:49;26.40;51.30
25871;DHT22;13689;48.590;7.752;2022-07-03T06:59:20;26.50;51.20
25871;DHT22;13689;48.590;7.752;2022-07-03T07:01:52;26.60;50.90
25871;DHT22;13689;48.590;7.752;2022-07-03T07:04:17;26.80;50.70
25871;DHT22;13689;48.590;7.752;2022-07-03T07:06:45;26.90;50.20
25871;DHT22;13689;48.590;7.752;2022-07-03T07:09:11;27.00;49.90
25871;DHT22;13689;48.590;7.752;2022-07-03T07:11:38;27.20;49.60
25871;DHT22;13689;48.590;7.752;2022-07-03T07:14:07;27.30;49.40
25871;DHT22;13689;48.590;7.752;2022-07-03T07:16:32;27.50;49.10
25871;DHT22;13689;48.590;7.752;2022-07-03T07:18:58;27.60;48.80
25871;DHT22;13689;48.590;7.752;2022-07-03T07:21:27;27.70;48.60
25871;DHT22;13689;48.590;7.752;2022-07-03T07:23:53;27.80;48.20
25871;DHT22;13689;48.590;7.752;2022-07-03T07:26:19;27.90;48.00
25871;DHT22;13689;48.590;7.752;2022-07-03T07:28:46;28.10;48.00
25871;DHT22;13689;48.590;7.752;2022-07-03T07:31:15;28.30;47.50
25871;DHT22;13689;48.590;7.752;2022-07-03T07:33:48;28.40;47.30
25871;DHT22;13689;48.590;7.752;2022-07-03T07:36:22;28.50;46.70
25871;DHT22;13689;48.590;7.752;2022-07-03T07:38:48;28.80;46.40
25871;DHT22;13689;48.590;7.752;2022-07-03T07:41:14;28.80;45.90
25871;DHT22;13689;48.590;7.752;2022-07-03T07:43:40;29.00;45.70
25871;DHT22;13689;48.590;7.752;2022-07-03T07:46:11;29.20;45.30
25871;DHT22;13689;48.590;7.752;2022-07-03T07:48:36;29.40;44.80
25871;DHT22;13689;48.590;7.752;2022-07-03T07:51:06;29.50;44.60
25871;DHT22;13689;48.590;7.752;2022-07-03T07:53:32;29.60;44.30
25871;DHT22;13689;48.590;7.752;2022-07-03T07:56:00;29.70;44.90
25871;DHT22;13689;48.590;7.752;2022-07-03T07:58:26;29.90;43.80
25871;DHT22;13689;48.590;7.752;2022-07-03T08:00:52;30.10;43.60
25871;DHT22;13689;48.590;7.752;2022-07-03T08:03:36;30.20;43.10
25871;DHT22;13689;48.590;7.752;2022-07-03T08:06:20;30.50;42.80
25871;DHT22;13689;48.590;7.752;2022-07-03T08:08:49;30.80;42.30
25871;DHT22;13689;48.590;7.752;2022-07-03T08:11:16;31.10;41.80
25871;DHT22;13689;48.590;7.752;2022-07-03T08:13:42;31.30;41.50
25871;DHT22;13689;48.590;7.752;2022-07-03T08:16:11;31.60;41.00
25871;DHT22;13689;48.590;7.752;2022-07-03T08:18:36;31.80;40.90
25871;DHT22;13689;48.590;7.752;2022-07-03T08:21:02;32.00;40.30
25871;DHT22;13689;48.590;7.752;2022-07-03T08:23:28;32.20;39.80
25871;DHT22;13689;48.590;7.752;2022-07-03T08:25:53;32.60;39.40
25871;DHT22;13689;48.590;7.752;2022-07-03T08:28:19;32.80;39.00
25871;DHT22;13689;48.590;7.752;2022-07-03T08:30:45;33.20;38.50
25871;DHT22;13689;48.590;7.752;2022-07-03T08:33:11;33.50;37.90
25871;DHT22;13689;48.590;7.752;2022-07-03T08:35:36;34.00;37.20
25871;DHT22;13689;48.590;7.752;2022-07-03T08:38:02;34.30;36.70
25871;DHT22;13689;48.590;7.752;2022-07-03T08:40:28;34.20;36.00
25871;DHT22;13689;48.590;7.752;2022-07-03T08:42:56;34.20;35.90
25871;DHT22;13689;48.590;7.752;2022-07-03T08:45:23;34.30;34.90
25871;DHT22;13689;48.590;7.752;2022-07-03T08:47:50;34.50;34.30
25871;DHT22;13689;48.590;7.752;2022-07-03T08:50:16;34.50;34.10
25871;DHT22;13689;48.590;7.752;2022-07-03T08:52:43;34.70;34.20
25871;DHT22;13689;48.590;7.752;2022-07-03T08:55:10;34.80;33.90
25871;DHT22;13689;48.590;7.752;2022-07-03T08:57:36;35.00;32.60
25871;DHT22;13689;48.590;7.752;2022-07-03T09:00:05;34.90;32.60
25871;DHT22;13689;48.590;7.752;2022-07-03T09:02:31;35.00;32.40
25871;DHT22;13689;48.590;7.752;2022-07-03T09:04:59;34.90;32.30
25871;DHT22;13689;48.590;7.752;2022-07-03T09:07:26;35.10;32.10
25871;DHT22;13689;48.590;7.752;2022-07-03T09:09:52;35.30;31.30
25871;DHT22;13689;48.590;7.752;2022-07-03T09:12:19;35.40;30.70
25871;DHT22;13689;48.590;7.752;2022-07-03T09:14:46;35.50;30.30
25871;DHT22;13689;48.590;7.752;2022-07-03T09:17:12;35.70;29.70
25871;DHT22;13689;48.590;7.752;2022-07-03T09:19:45;35.80;29.40
25871;DHT22;13689;48.590;7.752;2022-07-03T09:24:51;35.40;29.20
25871;DHT22;13689;48.590;7.752;2022-07-03T09:27:22;35.20;29.30
25871;DHT22;13689;48.590;7.752;2022-07-03T09:32:23;35.10;29.30
25871;DHT22;13689;48.590;7.752;2022-07-03T09:34:49;35.00;29.10
25871;DHT22;13689;48.590;7.752;2022-07-03T09:37:24;34.90;29.20
25871;DHT22;13689;48.590;7.752;2022-07-03T09:39:56;35.10;29.20
25871;DHT22;13689;48.590;7.752;2022-07-03T09:42:22;35.20;29.20
25871;DHT22;13689;48.590;7.752;2022-07-03T09:44:48;35.30;29.00
25871;DHT22;13689;48.590;7.752;2022-07-03T09:47:22;35.40;28.70
25871;DHT22;13689;48.590;7.752;2022-07-03T09:49:57;35.50;28.70
25871;DHT22;13689;48.590;7.752;2022-07-03T09:52:47;35.50;28.60
25871;DHT22;13689;48.590;7.752;2022-07-03T09:55:19;35.60;28.30
25871;DHT22;13689;48.590;7.752;2022-07-03T10:02:56;35.90;27.70
25871;DHT22;13689;48.590;7.752;2022-07-03T10:05:28;36.00;27.50
25871;DHT22;13689;48.590;7.752;2022-07-03T10:08:01;36.20;27.20
25871;DHT22;13689;48.590;7.752;2022-07-03T10:10:34;36.20;27.20
25871;DHT22;13689;48.590;7.752;2022-07-03T10:13:00;36.30;26.90
25871;DHT22;13689;48.590;7.752;2022-07-03T10:15:30;36.50;26.60
25871;DHT22;13689;48.590;7.752;2022-07-03T10:17:57;36.40;26.60
25871;DHT22;13689;48.590;7.752;2022-07-03T10:20:33;36.30;26.80
25871;DHT22;13689;48.590;7.752;2022-07-03T10:22:59;36.30;26.70
25871;DHT22;13689;48.590;7.752;2022-07-03T10:25:25;36.20;26.70
25871;DHT22;13689;48.590;7.752;2022-07-03T10:27:52;36.10;26.90
25871;DHT22;13689;48.590;7.752;2022-07-03T10:30:20;36.10;27.00
25871;DHT22;13689;48.590;7.752;2022-07-03T10:32:47;36.30;26.80
25871;DHT22;13689;48.590;7.752;2022-07-03T10:35:15;36.60;26.70
25871;DHT22;13689;48.590;7.752;2022-07-03T10:38:14;36.70;26.60
25871;DHT22;13689;48.590;7.752;2022-07-03T10:40:59;36.70;26.50
25871;DHT22;13689;48.590;7.752;2022-07-03T10:43:46;36.90;26.90
25871;DHT22;13689;48.590;7.752;2022-07-03T10:46:30;36.90;26.50
25871;DHT22;13689;48.590;7.752;2022-07-03T10:49:10;36.80;26.40
25871;DHT22;13689;48.590;7.752;2022-07-03T10:54:21;35.90;26.80
25871;DHT22;13689;48.590;7.752;2022-07-03T11:07:32;32.40;29.80
25871;DHT22;13689;48.590;7.752;2022-07-03T11:13:08;31.90;30.30
25871;DHT22;13689;48.590;7.752;2022-07-03T11:15:53;31.70;30.50
25871;DHT22;13689;48.590;7.752;2022-07-03T11:18:56;31.50;31.00
25871;DHT22;13689;48.590;7.752;2022-07-03T11:21:30;31.30;31.20
25871;DHT22;13689;48.590;7.752;2022-07-03T11:24:23;31.20;31.60
25871;DHT22;13689;48.590;7.752;2022-07-03T11:27:17;31.10;32.20
25871;DHT22;13689;48.590;7.752;2022-07-03T11:29:57;31.20;32.20
25871;DHT22;13689;48.590;7.752;2022-07-03T11:32:53;31.10;33.00
25871;DHT22;13689;48.590;7.752;2022-07-03T11:38:15;31.00;32.70
25871;DHT22;13689;48.590;7.752;2022-07-03T11:40:42;30.90;32.80
25871;DHT22;13689;48.590;7.752;2022-07-03T11:43:11;30.80;33.00
25871;DHT22;13689;48.590;7.752;2022-07-03T11:45:39;30.80;33.10
25871;DHT22;13689;48.590;7.752;2022-07-03T11:48:11;30.80;33.20
25871;DHT22;13689;48.590;7.752;2022-07-03T11:50:41;30.80;33.20
25871;DHT22;13689;48.590;7.752;2022-07-03T11:53:24;30.70;33.10
25871;DHT22;13689;48.590;7.752;2022-07-03T11:55:58;30.70;33.40
25871;DHT22;13689;48.590;7.752;2022-07-03T11:58:26;30.70;33.50
25871;DHT22;13689;48.590;7.752;2022-07-03T12:01:04;30.70;33.30
25871;DHT22;13689;48.590;7.752;2022-07-03T12:03:30;30.60;33.30
25871;DHT22;13689;48.590;7.752;2022-07-03T12:05:57;30.60;33.50
25871;DHT22;13689;48.590;7.752;2022-07-03T12:08:25;30.60;33.50
25871;DHT22;13689;48.590;7.752;2022-07-03T12:10:55;30.70;33.60
25871;DHT22;13689;48.590;7.752;2022-07-03T12:13:22;30.70;33.60
25871;DHT22;13689;48.590;7.752;2022-07-03T12:15:48;30.80;33.50
25871;DHT22;13689;48.590;7.752;2022-07-03T12:18:14;30.90;33.60
25871;DHT22;13689;48.590;7.752;2022-07-03T12:20:40;31.00;33.50
25871;DHT22;13689;48.590;7.752;2022-07-03T12:23:05;31.00;33.60
25871;DHT22;13689;48.590;7.752;2022-07-03T12:25:31;31.00;33.50
25871;DHT22;13689;48.590;7.752;2022-07-03T12:27:57;30.80;33.50
25871;DHT22;13689;48.590;7.752;2022-07-03T12:30:23;30.80;33.80
25871;DHT22;13689;48.590;7.752;2022-07-03T12:32:51;30.90;33.90
25871;DHT22;13689;48.590;7.752;2022-07-03T12:35:25;31.00;33.80
25871;DHT22;13689;48.590;7.752;2022-07-03T12:37:51;31.10;33.60
25871;DHT22;13689;48.590;7.752;2022-07-03T12:40:16;31.10;33.50
25871;DHT22;13689;48.590;7.752;2022-07-03T12:42:50;31.00;33.40
25871;DHT22;13689;48.590;7.752;2022-07-03T12:45:17;31.00;33.50
25871;DHT22;13689;48.590;7.752;2022-07-03T12:47:43;31.00;33.50
25871;DHT22;13689;48.590;7.752;2022-07-03T12:50:09;31.10;33.50
25871;DHT22;13689;48.590;7.752;2022-07-03T12:52:54;31.10;33.50
25871;DHT22;13689;48.590;7.752;2022-07-03T12:55:25;31.00;33.30
25871;DHT22;13689;48.590;7.752;2022-07-03T12:58:13;30.90;33.50
25871;DHT22;13689;48.590;7.752;2022-07-03T13:00:57;30.90;33.40
25871;DHT22;13689;48.590;7.752;2022-07-03T13:03:31;30.90;33.60
25871;DHT22;13689;48.590;7.752;2022-07-03T13:05:59;31.00;33.50
25871;DHT22;13689;48.590;7.752;2022-07-03T13:08:25;31.20;33.40
25871;DHT22;13689;48.590;7.752;2022-07-03T13:10:58;31.20;33.10
25871;DHT22;13689;48.590;7.752;2022-07-03T13:13:24;31.20;33.10
25871;DHT22;13689;48.590;7.752;2022-07-03T13:15:50;31.30;33.00
25871;DHT22;13689;48.590;7.752;2022-07-03T13:18:16;31.30;33.00
25871;DHT22;13689;48.590;7.752;2022-07-03T13:20:41;31.40;32.90
25871;DHT22;13689;48.590;7.752;2022-07-03T13:23:07;31.50;32.80
25871;DHT22;13689;48.590;7.752;2022-07-03T13:25:35;31.30;32.50
25871;DHT22;13689;48.590;7.752;2022-07-03T13:28:13;31.00;32.70
25871;DHT22;13689;48.590;7.752;2022-07-03T13:30:40;30.90;33.00
25871;DHT22;13689;48.590;7.752;2022-07-03T13:33:06;31.10;33.10
25871;DHT22;13689;48.590;7.752;2022-07-03T13:35:32;31.30;33.00
25871;DHT22;13689;48.590;7.752;2022-07-03T13:37:58;31.40;32.80
25871;DHT22;13689;48.590;7.752;2022-07-03T13:40:24;31.60;33.20
25871;DHT22;13689;48.590;7.752;2022-07-03T13:42:50;31.70;32.40
25871;DHT22;13689;48.590;7.752;2022-07-03T13:45:16;31.70;32.20
25871;DHT22;13689;48.590;7.752;2022-07-03T13:47:41;31.70;32.20
25871;DHT22;13689;48.590;7.752;2022-07-03T13:50:08;31.70;31.80
25871;DHT22;13689;48.590;7.752;2022-07-03T13:52:35;31.60;32.10
25871;DHT22;13689;48.590;7.752;2022-07-03T13:55:00;31.50;32.10
25871;DHT22;13689;48.590;7.752;2022-07-03T13:57:26;31.20;32.40
25871;DHT22;13689;48.590;7.752;2022-07-03T13:59:52;31.20;32.80
25871;DHT22;13689;48.590;7.752;2022-07-03T14:02:17;31.20;33.00
25871;DHT22;13689;48.590;7.752;2022-07-03T14:04:43;31.20;33.00
25871;DHT22;13689;48.590;7.752;2022-07-03T14:07:09;31.20;33.20
25871;DHT22;13689;48.590;7.752;2022-07-03T14:09:35;31.10;33.20
25871;DHT22;13689;48.590;7.752;2022-07-03T14:12:00;31.10;33.40
25871;DHT22;13689;48.590;7.752;2022-07-03T14:14:26;31.20;33.50
25871;DHT22;13689;48.590;7.752;2022-07-03T14:16:52;31.10;33.40
25871;DHT22;13689;48.590;7.752;2022-07-03T14:19:18;30.90;33.50
25871;DHT22;13689;48.590;7.752;2022-07-03T14:21:44;30.80;34.30
25871;DHT22;13689;48.590;7.752;2022-07-03T14:24:09;30.60;35.10
25871;DHT22;13689;48.590;7.752;2022-07-03T14:26:35;30.50;35.60
25871;DHT22;13689;48.590;7.752;2022-07-03T14:29:19;30.50;36.00
25871;DHT22;13689;48.590;7.752;2022-07-03T14:32:04;30.50;36.10
25871;DHT22;13689;48.590;7.752;2022-07-03T14:34:48;30.40;36.70
25871;DHT22;13689;48.590;7.752;2022-07-03T14:37:14;30.30;36.20
25871;DHT22;13689;48.590;7.752;2022-07-03T14:39:44;30.20;36.30
25871;DHT22;13689;48.590;7.752;2022-07-03T14:42:09;30.30;36.50
25871;DHT22;13689;48.590;7.752;2022-07-03T14:44:35;30.20;36.50
25871;DHT22;13689;48.590;7.752;2022-07-03T14:47:00;30.20;36.60
25871;DHT22;13689;48.590;7.752;2022-07-03T14:49:26;30.30;36.70
25871;DHT22;13689;48.590;7.752;2022-07-03T14:51:52;30.30;36.60
25871;DHT22;13689;48.590;7.752;2022-07-03T14:54:19;30.30;36.60
25871;DHT22;13689;48.590;7.752;2022-07-03T14:56:52;30.30;36.40
25871;DHT22;13689;48.590;7.752;2022-07-03T15:02:06;30.20;36.80
25871;DHT22;13689;48.590;7.752;2022-07-03T15:07:25;30.20;37.10
25871;DHT22;13689;48.590;7.752;2022-07-03T15:10:04;30.20;37.10
25871;DHT22;13689;48.590;7.752;2022-07-03T15:12:33;30.30;37.30
25871;DHT22;13689;48.590;7.752;2022-07-03T15:15:02;30.20;37.40
25871;DHT22;13689;48.590;7.752;2022-07-03T15:17:28;30.20;37.50
25871;DHT22;13689;48.590;7.752;2022-07-03T15:19:55;30.20;37.50
25871;DHT22;13689;48.590;7.752;2022-07-03T15:22:21;30.20;37.70
25871;DHT22;13689;48.590;7.752;2022-07-03T15:24:52;30.20;37.60
25871;DHT22;13689;48.590;7.752;2022-07-03T15:27:23;30.20;37.70
25871;DHT22;13689;48.590;7.752;2022-07-03T15:29:49;30.20;37.70
25871;DHT22;13689;48.590;7.752;2022-07-03T15:32:16;30.20;37.70
25871;DHT22;13689;48.590;7.752;2022-07-03T15:34:42;30.20;37.70
25871;DHT22;13689;48.590;7.752;2022-07-03T15:39:47;30.10;37.80
25871;DHT22;13689;48.590;7.752;2022-07-03T15:42:20;30.20;37.90
25871;DHT22;13689;48.590;7.752;2022-07-03T15:45:07;30.10;38.00
25871;DHT22;13689;48.590;7.752;2022-07-03T15:52:58;30.00;38.30
25871;DHT22;13689;48.590;7.752;2022-07-03T15:55:23;30.00;38.30
25871;DHT22;13689;48.590;7.752;2022-07-03T15:58:01;30.00;38.30
25871;DHT22;13689;48.590;7.752;2022-07-03T16:00:34;30.10;38.10
25871;DHT22;13689;48.590;7.752;2022-07-03T16:03:28;30.00;38.10
25871;DHT22;13689;48.590;7.752;2022-07-03T16:06:02;30.10;38.20
25871;DHT22;13689;48.590;7.752;2022-07-03T16:08:29;30.10;38.20
25871;DHT22;13689;48.590;7.752;2022-07-03T16:10:57;30.10;38.00
25871;DHT22;13689;48.590;7.752;2022-07-03T16:13:27;30.10;38.00
25871;DHT22;13689;48.590;7.752;2022-07-03T16:15:56;30.00;38.10
25871;DHT22;13689;48.590;7.752;2022-07-03T16:18:24;29.90;38.10
25871;DHT22;13689;48.590;7.752;2022-07-03T16:20:51;29.80;38.20
25871;DHT22;13689;48.590;7.752;2022-07-03T16:23:20;29.70;38.20
25871;DHT22;13689;48.590;7.752;2022-07-03T16:25:46;29.80;38.40
25871;DHT22;13689;48.590;7.752;2022-07-03T16:28:12;29.80;38.40
25871;DHT22;13689;48.590;7.752;2022-07-03T16:30:46;29.80;38.50
25871;DHT22;13689;48.590;7.752;2022-07-03T16:33:12;29.90;38.50
25871;DHT22;13689;48.590;7.752;2022-07-03T16:35:43;29.90;38.40
25871;DHT22;13689;48.590;7.752;2022-07-03T16:38:11;30.00;38.50
25871;DHT22;13689;48.590;7.752;2022-07-03T16:40:38;30.00;38.30
25871;DHT22;13689;48.590;7.752;2022-07-03T16:43:06;30.00;38.30
25871;DHT22;13689;48.590;7.752;2022-07-03T16:45:35;29.90;38.10
25871;DHT22;13689;48.590;7.752;2022-07-03T16:48:18;29.80;38.20
25871;DHT22;13689;48.590;7.752;2022-07-03T16:50:51;29.80;38.40
25871;DHT22;13689;48.590;7.752;2022-07-03T16:53:18;29.70;38.50
25871;DHT22;13689;48.590;7.752;2022-07-03T16:55:47;29.60;38.80
25871;DHT22;13689;48.590;7.752;2022-07-03T16:58:13;29.60;39.00
25871;DHT22;13689;48.590;7.752;2022-07-03T17:00:40;29.60;39.00
25871;DHT22;13689;48.590;7.752;2022-07-03T17:03:10;29.60;39.10